TVS9LN LEBB-LKPR
Flight info
| Callsign | TVS9LN |
|---|---|
| Flight time | N/A |
| Altitude | 30000 |
| Route | PPN DCT LATEK/N0442F360 DCT GONUP DCT TOU DCT GAI DCT MEN/N0441F380 DCT NINUN DCT LATAM DCT ETREK DCT LTP/N0431F340 DCT SOPLO DCT OMASI DCT KINNI/N0440F380 DCT SOSAL DCT KORED DCT BERSU DCT DITON DCT DEGES DCT GAMSA/N0436F370 DCT KONIN DCT MEBEK DCT NENUM Z39 DOLUP DCT APRAQ |
| Aircraft | B738/M-SDFGHIJ1LORVWXYZ/LB1 |
Departure
| Time | 2026-05-04 14:45 |
|---|---|
| Airport | Bilbao Airport (LEBB) |
Arrival
| Time | N/A |
|---|---|
| Airport | Václav Havel Airport Prague (LKPR) |
| Time | Latitude | Longitude | Altitude | Speed | Heading |
|---|---|---|---|---|---|
| 2026-05-04 14:30 | 43.30277 | -2.90442 | 131 ft | 0 kts | 57° |
| 2026-05-04 14:38 | 43.30270 | -2.90458 | 131 ft | 4 kts | 62° |
| 2026-05-04 14:38 | 43.30260 | -2.90492 | 131 ft | 4 kts | 82° |
| 2026-05-04 14:38 | 43.30262 | -2.90527 | 131 ft | 4 kts | 115° |
| 2026-05-04 14:39 | 43.30273 | -2.90547 | 131 ft | 0 kts | 145° |
| 2026-05-04 14:41 | 43.30243 | -2.90521 | 131 ft | 5 kts | 158° |
| 2026-05-04 14:42 | 43.30176 | -2.90557 | 131 ft | 6 kts | 208° |
| 2026-05-04 14:42 | 43.30134 | -2.90575 | 131 ft | 7 kts | 172° |
| 2026-05-04 14:42 | 43.30094 | -2.90506 | 131 ft | 13 kts | 116° |
| 2026-05-04 14:43 | 43.30043 | -2.90368 | 131 ft | 19 kts | 116° |
| 2026-05-04 14:43 | 43.29973 | -2.90179 | 131 ft | 25 kts | 116° |
| 2026-05-04 14:43 | 43.29888 | -2.89944 | 131 ft | 29 kts | 116° |
| 2026-05-04 14:43 | 43.29812 | -2.89734 | 131 ft | 23 kts | 116° |
| 2026-05-04 14:44 | 43.29744 | -2.89547 | 128 ft | 21 kts | 116° |
| 2026-05-04 14:44 | 43.29665 | -2.89511 | 131 ft | 8 kts | 238° |
| 2026-05-04 14:44 | 43.29642 | -2.89582 | 128 ft | 9 kts | 246° |
| 2026-05-04 14:44 | 43.29628 | -2.89757 | 130 ft | 31 kts | 294° |
| 2026-05-04 14:45 | 43.29802 | -2.90224 | 132 ft | 91 kts | 297° |
| 2026-05-04 14:45 | 43.30198 | -2.91297 | 134 ft | 158 kts | 297° |
| 2026-05-04 14:45 | 43.30738 | -2.92719 | 816 ft | 163 kts | 298° |
| 2026-05-04 14:45 | 43.31245 | -2.94089 | 1809 ft | 164 kts | 297° |
| 2026-05-04 14:46 | 43.31801 | -2.95620 | 2214 ft | 195 kts | 296° |
| 2026-05-04 14:46 | 43.32437 | -2.97352 | 2714 ft | 208 kts | 298° |
| 2026-05-04 14:46 | 43.33433 | -2.98803 | 3332 ft | 215 kts | 332° |
| 2026-05-04 14:46 | 43.34888 | -2.99288 | 4090 ft | 217 kts | 347° |
| 2026-05-04 14:47 | 43.36184 | -3.00254 | 4727 ft | 216 kts | 307° |
| 2026-05-04 14:47 | 43.37040 | -3.01971 | 5429 ft | 221 kts | 304° |
| 2026-05-04 14:47 | 43.37966 | -3.03666 | 6207 ft | 223 kts | 307° |
| 2026-05-04 14:47 | 43.38950 | -3.05338 | 6985 ft | 226 kts | 308° |
| 2026-05-04 14:48 | 43.40045 | -3.06945 | 7565 ft | 241 kts | 325° |
| 2026-05-04 14:48 | 43.41687 | -3.07624 | 8087 ft | 258 kts | 1° |
| 2026-05-04 14:48 | 43.43400 | -3.06829 | 8760 ft | 270 kts | 36° |
| 2026-05-04 14:48 | 43.44516 | -3.04757 | 9480 ft | 276 kts | 72° |
| 2026-05-04 14:49 | 43.44797 | -3.02151 | 10275 ft | 277 kts | 83° |
| 2026-05-04 14:49 | 43.45225 | -2.99552 | 11004 ft | 282 kts | 70° |
| 2026-05-04 14:49 | 43.46176 | -2.97181 | 11713 ft | 286 kts | 51° |
| 2026-05-04 14:49 | 43.47689 | -2.95373 | 12382 ft | 292 kts | 36° |
| 2026-05-04 14:50 | 43.49251 | -2.93545 | 12893 ft | 303 kts | 54° |
| 2026-05-04 14:50 | 43.50111 | -2.90846 | 13066 ft | 319 kts | 85° |
| 2026-05-04 14:50 | 43.49951 | -2.87749 | 13261 ft | 334 kts | 110° |
| 2026-05-04 14:50 | 43.48953 | -2.84818 | 13596 ft | 343 kts | 128° |
| 2026-05-04 14:51 | 43.47464 | -2.82239 | 14242 ft | 345 kts | 134° |
| 2026-05-04 14:51 | 43.45851 | -2.79787 | 15008 ft | 346 kts | 136° |
| 2026-05-04 14:51 | 43.44209 | -2.77365 | 15735 ft | 348 kts | 136° |
| 2026-05-04 14:51 | 43.42549 | -2.74913 | 16411 ft | 351 kts | 136° |
| 2026-05-04 14:52 | 43.40888 | -2.72431 | 17096 ft | 354 kts | 136° |
| 2026-05-04 14:52 | 43.39221 | -2.69918 | 17740 ft | 357 kts | 136° |
| 2026-05-04 14:52 | 43.38512 | -2.68817 | 18034 ft | 359 kts | 131° |
| 2026-05-04 14:52 | 43.37019 | -2.66047 | 18685 ft | 362 kts | 128° |
| 2026-05-04 14:53 | 43.35468 | -2.63303 | 19248 ft | 364 kts | 132° |
| 2026-05-04 14:53 | 43.33787 | -2.60703 | 19862 ft | 365 kts | 135° |
| 2026-05-04 14:53 | 43.32044 | -2.58161 | 20422 ft | 367 kts | 135° |
| 2026-05-04 14:53 | 43.30276 | -2.55599 | 20943 ft | 371 kts | 135° |
| 2026-05-04 14:54 | 43.28502 | -2.53000 | 21459 ft | 374 kts | 135° |
| 2026-05-04 14:54 | 43.26734 | -2.50372 | 21966 ft | 376 kts | 134° |
| 2026-05-04 14:54 | 43.24962 | -2.47707 | 22466 ft | 380 kts | 134° |
| 2026-05-04 14:54 | 43.23185 | -2.45016 | 22948 ft | 382 kts | 134° |
| 2026-05-04 14:55 | 43.21400 | -2.42301 | 23401 ft | 384 kts | 134° |
| 2026-05-04 14:55 | 43.19608 | -2.39567 | 23813 ft | 387 kts | 134° |
| 2026-05-04 14:55 | 43.17805 | -2.36820 | 24199 ft | 389 kts | 134° |
| 2026-05-04 14:55 | 43.15988 | -2.34051 | 24558 ft | 392 kts | 134° |
| 2026-05-04 14:56 | 43.14157 | -2.31263 | 24931 ft | 395 kts | 134° |
| 2026-05-04 14:56 | 43.12311 | -2.28458 | 25329 ft | 397 kts | 135° |
| 2026-05-04 14:56 | 43.10454 | -2.25640 | 25689 ft | 401 kts | 135° |
| 2026-05-04 14:56 | 43.08583 | -2.22803 | 26080 ft | 402 kts | 135° |
| 2026-05-04 14:57 | 43.06726 | -2.19989 | 26465 ft | 405 kts | 135° |
| 2026-05-04 14:57 | 43.04834 | -2.17125 | 26837 ft | 407 kts | 135° |
| 2026-05-04 14:57 | 43.02903 | -2.14207 | 27160 ft | 410 kts | 135° |
| 2026-05-04 14:57 | 43.01008 | -2.11347 | 27460 ft | 413 kts | 136° |
| 2026-05-04 14:58 | 42.99074 | -2.08432 | 27830 ft | 415 kts | 136° |
| 2026-05-04 14:58 | 42.97128 | -2.05504 | 28171 ft | 417 kts | 136° |
| 2026-05-04 14:58 | 42.95169 | -2.02557 | 28468 ft | 420 kts | 136° |
| 2026-05-04 14:58 | 42.93199 | -1.99599 | 28775 ft | 422 kts | 136° |
| 2026-05-04 14:59 | 42.91219 | -1.96631 | 29101 ft | 424 kts | 137° |
| 2026-05-04 14:59 | 42.89231 | -1.93655 | 29429 ft | 425 kts | 137° |
| 2026-05-04 14:59 | 42.85231 | -1.87679 | 29953 ft | 428 kts | 137° |
| 2026-05-04 15:00 | 42.83219 | -1.84691 | 29977 ft | 429 kts | 137° |
| 2026-05-04 15:00 | 42.79164 | -1.78683 | 29995 ft | 431 kts | 137° |
| 2026-05-04 15:01 | 42.75349 | -1.72351 | 30010 ft | 445 kts | 122° |
| 2026-05-04 15:01 | 42.74328 | -1.68305 | 29986 ft | 460 kts | 104° |
| 2026-05-04 15:01 | 42.74173 | -1.63912 | 29995 ft | 475 kts | 86° |
| 2026-05-04 15:01 | 42.74730 | -1.59447 | 29969 ft | 480 kts | 81° |
| 2026-05-04 15:02 | 42.76143 | -1.50542 | 29973 ft | 481 kts | 80° |
| 2026-05-04 15:02 | 42.77503 | -1.41642 | 29990 ft | 480 kts | 82° |
| 2026-05-04 15:03 | 42.78751 | -1.32716 | 29996 ft | 481 kts | 82° |
| 2026-05-04 15:03 | 42.79955 | -1.23755 | 30003 ft | 481 kts | 83° |
| 2026-05-04 15:04 | 42.81151 | -1.14784 | 29998 ft | 482 kts | 83° |
| 2026-05-04 15:04 | 42.82345 | -1.05798 | 29994 ft | 482 kts | 83° |
| 2026-05-04 15:05 | 42.83531 | -0.96809 | 29988 ft | 482 kts | 83° |
| 2026-05-04 15:05 | 42.84698 | -0.87881 | 29959 ft | 481 kts | 83° |
| 2026-05-04 15:06 | 42.85842 | -0.78914 | 29966 ft | 480 kts | 83° |
| 2026-05-04 15:07 | 42.87901 | -0.65546 | 29957 ft | 486 kts | 72° |
| 2026-05-04 15:07 | 42.90954 | -0.57282 | 29943 ft | 491 kts | 60° |
| 2026-05-04 15:08 | 42.94503 | -0.49321 | 29935 ft | 490 kts | 59° |
| 2026-05-04 15:08 | 42.97981 | -0.41354 | 29966 ft | 487 kts | 60° |
| 2026-05-04 15:09 | 43.01375 | -0.33335 | 29977 ft | 488 kts | 61° |
| 2026-05-04 15:09 | 43.04743 | -0.25270 | 29990 ft | 491 kts | 62° |
| 2026-05-04 15:10 | 43.09812 | -0.13079 | 29960 ft | 492 kts | 61° |
| 2026-05-04 15:11 | 43.14861 | -0.00919 | 29956 ft | 492 kts | 62° |
| 2026-05-04 15:11 | 43.18233 | 0.07228 | 29953 ft | 492 kts | 60° |
| 2026-05-04 15:12 | 43.21601 | 0.15389 | 29967 ft | 492 kts | 60° |